createdAt,value
2019-05-05T00:00:20.080Z,0.00
2019-05-05T00:01:20.065Z,0.00
2019-05-05T00:02:20.049Z,0.00
2019-05-05T00:03:20.031Z,0.00
2019-05-05T00:04:20.016Z,0.00
2019-05-05T00:05:19.999Z,0.00
2019-05-05T00:06:19.984Z,0.00
2019-05-05T00:07:19.974Z,0.00
2019-05-05T00:08:19.955Z,0.00
2019-05-05T00:09:19.939Z,0.00
2019-05-05T00:10:19.926Z,0.00
2019-05-05T00:11:19.907Z,0.00
2019-05-05T00:12:19.894Z,0.00
2019-05-05T00:13:19.885Z,0.00
2019-05-05T00:14:19.868Z,0.00
2019-05-05T00:15:19.847Z,0.00
2019-05-05T00:16:19.835Z,0.00
2019-05-05T00:17:19.821Z,0.00
2019-05-05T00:18:19.807Z,0.00
2019-05-05T00:19:30.710Z,0.00
2019-05-05T00:20:19.780Z,0.00
2019-05-05T00:21:19.763Z,0.00
2019-05-05T00:22:19.747Z,0.00
2019-05-05T00:23:19.732Z,0.00
2019-05-05T00:24:19.718Z,0.00
2019-05-05T00:25:19.705Z,0.00
2019-05-05T00:26:19.687Z,0.00
2019-05-05T00:27:19.674Z,0.00
2019-05-05T00:28:19.657Z,0.00
2019-05-05T00:29:19.645Z,0.00
2019-05-05T00:30:19.628Z,0.00
2019-05-05T00:31:19.613Z,0.00
2019-05-05T00:32:19.603Z,0.00
2019-05-05T00:33:19.588Z,0.00
2019-05-05T00:34:19.571Z,0.00
2019-05-05T00:35:19.556Z,0.00
2019-05-05T00:36:19.539Z,0.00
2019-05-05T00:37:19.528Z,0.00
2019-05-05T00:38:19.513Z,0.00
2019-05-05T00:39:19.497Z,0.00
2019-05-05T00:40:19.481Z,0.00
2019-05-05T00:41:19.469Z,0.00
2019-05-05T00:42:19.452Z,0.00
2019-05-05T00:43:19.437Z,0.00
2019-05-05T00:44:19.431Z,0.00
2019-05-05T00:45:19.410Z,0.00
2019-05-05T00:46:19.396Z,0.00
2019-05-05T00:47:19.381Z,0.00
2019-05-05T00:48:19.368Z,0.00
2019-05-05T00:49:19.351Z,0.00
2019-05-05T00:50:19.341Z,0.00
2019-05-05T00:51:19.324Z,0.00
2019-05-05T00:52:19.309Z,0.00
2019-05-05T00:53:19.294Z,0.00
2019-05-05T00:54:19.279Z,0.00
2019-05-05T00:55:19.263Z,0.00
2019-05-05T00:56:19.249Z,0.00
2019-05-05T00:57:19.235Z,0.00
2019-05-05T00:58:19.223Z,0.00
2019-05-05T00:59:19.204Z,0.00
2019-05-05T01:00:19.192Z,0.00
2019-05-05T01:01:19.179Z,0.00
2019-05-05T01:02:19.164Z,0.00
2019-05-05T01:03:19.145Z,0.00
2019-05-05T01:04:19.134Z,0.00
2019-05-05T01:05:19.117Z,0.00
2019-05-05T01:06:19.106Z,0.00
2019-05-05T01:07:19.089Z,0.00
2019-05-05T01:08:19.074Z,0.00
2019-05-05T01:09:19.061Z,0.00
2019-05-05T01:10:19.047Z,0.00
2019-05-05T01:11:19.031Z,0.00
2019-05-05T01:12:19.021Z,0.00
2019-05-05T01:13:19.005Z,0.00
2019-05-05T01:14:18.988Z,0.00
2019-05-05T01:15:18.972Z,0.00
2019-05-05T01:16:18.958Z,0.00
2019-05-05T01:17:18.944Z,0.00
2019-05-05T01:18:18.928Z,0.00
2019-05-05T01:19:18.913Z,0.00
2019-05-05T01:20:18.899Z,0.00
2019-05-05T01:21:18.884Z,0.00
2019-05-05T01:22:18.872Z,0.00
2019-05-05T01:23:18.858Z,0.00
2019-05-05T01:24:18.843Z,0.00
2019-05-05T01:25:18.831Z,0.00
2019-05-05T01:26:18.816Z,0.00
2019-05-05T01:27:18.800Z,0.00
2019-05-05T01:28:18.785Z,0.00
2019-05-05T01:29:18.770Z,0.00
2019-05-05T01:30:18.757Z,0.00
2019-05-05T01:31:18.740Z,0.00
2019-05-05T01:32:18.730Z,0.00
2019-05-05T01:33:18.713Z,0.00
2019-05-05T01:34:18.701Z,0.00
2019-05-05T01:35:18.686Z,0.00
2019-05-05T01:38:02.261Z,0.00
2019-05-05T01:39:04.148Z,0.00
2019-05-05T01:40:02.234Z,0.00
2019-05-05T01:41:04.172Z,0.00
2019-05-05T01:42:02.201Z,0.00
2019-05-05T01:43:02.190Z,0.00
2019-05-05T01:44:02.171Z,0.00
2019-05-05T01:45:04.407Z,0.00
2019-05-05T01:46:02.143Z,0.00
2019-05-05T01:47:02.126Z,0.00
2019-05-05T01:48:02.116Z,0.00
2019-05-05T01:49:02.098Z,0.00
2019-05-05T01:50:15.277Z,0.00
2019-05-05T01:51:02.074Z,0.00
2019-05-05T01:52:04.211Z,0.00
2019-05-05T01:53:02.044Z,0.00
2019-05-05T01:54:02.030Z,0.00
2019-05-05T01:55:02.042Z,0.00
2019-05-05T01:56:01.999Z,0.00
2019-05-05T01:57:01.985Z,0.00
2019-05-05T01:58:01.972Z,0.00
2019-05-05T01:59:01.959Z,0.00
2019-05-05T02:00:04.130Z,0.00
2019-05-05T02:01:01.925Z,0.00
2019-05-05T02:02:01.912Z,0.00
2019-05-05T02:03:01.902Z,0.00
2019-05-05T02:04:01.883Z,0.00
2019-05-05T02:05:01.868Z,0.00
2019-05-05T02:06:01.851Z,0.00
2019-05-05T02:07:01.840Z,0.00
2019-05-05T02:08:01.822Z,0.00
2019-05-05T02:09:01.809Z,0.00
2019-05-05T02:10:01.798Z,0.00
2019-05-05T02:11:01.783Z,0.00
2019-05-05T02:12:01.764Z,0.00
2019-05-05T02:13:01.749Z,0.00
2019-05-05T02:14:01.737Z,0.00
2019-05-05T02:15:01.724Z,0.00
2019-05-05T02:16:01.710Z,0.00
2019-05-05T02:17:01.693Z,0.00
2019-05-05T02:18:01.679Z,0.00
2019-05-05T02:19:01.669Z,0.00
2019-05-05T02:20:01.649Z,0.00
2019-05-05T02:21:01.635Z,0.00
2019-05-05T02:22:01.621Z,0.00
2019-05-05T02:23:01.605Z,0.00
2019-05-05T02:24:01.591Z,0.00
2019-05-05T02:25:01.577Z,0.00
2019-05-05T02:26:01.559Z,0.00
2019-05-05T02:27:01.547Z,0.00
2019-05-05T02:28:01.531Z,0.00
2019-05-05T02:29:01.517Z,0.00
2019-05-05T02:30:01.506Z,0.00
2019-05-05T02:31:01.488Z,0.00
2019-05-05T02:32:01.473Z,0.00
2019-05-05T02:33:01.459Z,0.00
2019-05-05T02:34:01.446Z,0.00
2019-05-05T02:35:01.430Z,0.00
2019-05-05T02:36:01.421Z,0.00
2019-05-05T02:37:01.401Z,0.00
2019-05-05T02:38:01.387Z,0.00
2019-05-05T02:39:01.374Z,0.00
2019-05-05T02:40:06.440Z,0.00
2019-05-05T02:41:01.342Z,0.00
2019-05-05T02:42:01.328Z,0.00
2019-05-05T02:43:01.325Z,0.00
2019-05-05T02:44:01.299Z,0.00
2019-05-05T02:45:01.284Z,0.00
2019-05-05T02:46:01.267Z,0.00
2019-05-05T02:47:01.253Z,0.00
2019-05-05T02:48:01.238Z,0.00
2019-05-05T02:49:01.225Z,0.00
2019-05-05T02:50:01.208Z,0.00
2019-05-05T02:51:02.860Z,0.00
2019-05-05T02:52:01.192Z,0.00
2019-05-05T02:53:01.165Z,0.00
2019-05-05T02:54:01.149Z,0.00
2019-05-05T02:55:01.137Z,0.00
2019-05-05T02:56:01.121Z,0.00
2019-05-05T02:57:01.104Z,0.00
2019-05-05T02:58:01.089Z,0.00
2019-05-05T02:59:01.074Z,0.00
2019-05-05T03:00:01.060Z,0.00
2019-05-05T03:01:01.047Z,0.00
2019-05-05T03:02:01.030Z,0.00
2019-05-05T03:03:01.015Z,0.00
2019-05-05T03:04:00.997Z,0.00
2019-05-05T03:05:00.984Z,0.00
2019-05-05T03:06:00.967Z,0.00
2019-05-05T03:07:00.955Z,0.00
2019-05-05T03:08:00.937Z,0.00
2019-05-05T03:09:00.931Z,0.00
2019-05-05T03:10:00.908Z,0.00
2019-05-05T03:11:00.895Z,0.00
2019-05-05T03:12:00.879Z,0.00
2019-05-05T03:13:00.862Z,0.00
2019-05-05T03:14:00.847Z,0.00
2019-05-05T03:15:00.835Z,0.00
2019-05-05T03:16:00.818Z,0.00
2019-05-05T03:17:00.803Z,0.00
2019-05-05T03:18:00.788Z,0.00
2019-05-05T03:19:00.772Z,0.00
2019-05-05T03:20:00.757Z,0.00
2019-05-05T03:21:04.372Z,0.00
2019-05-05T03:22:00.727Z,0.00
2019-05-05T03:23:00.713Z,0.00
2019-05-05T03:24:00.697Z,0.00
2019-05-05T03:25:00.680Z,0.00
2019-05-05T03:26:00.666Z,0.00
2019-05-05T03:27:00.651Z,0.00
2019-05-05T03:28:00.635Z,0.00
2019-05-05T03:29:00.619Z,0.00
2019-05-05T03:30:00.609Z,0.00
2019-05-05T03:31:00.601Z,0.00
2019-05-05T03:32:00.575Z,0.00
2019-05-05T03:33:00.563Z,0.00
2019-05-05T03:34:00.562Z,0.00
2019-05-05T03:35:00.529Z,0.00
2019-05-05T03:36:00.523Z,0.00
2019-05-05T03:37:00.501Z,0.00
2019-05-05T03:38:00.485Z,0.00
2019-05-05T03:39:00.473Z,0.00
2019-05-05T03:40:00.454Z,0.00
2019-05-05T03:41:00.440Z,0.00
2019-05-05T03:42:00.425Z,0.00
2019-05-05T03:43:00.410Z,0.00
2019-05-05T03:44:00.394Z,0.00
2019-05-05T03:45:00.381Z,0.00
2019-05-05T03:46:00.370Z,4.00
2019-05-05T03:47:00.349Z,4.00
2019-05-05T03:48:00.334Z,0.00
2019-05-05T03:49:00.321Z,0.00
2019-05-05T03:50:00.305Z,4.00
2019-05-05T03:51:00.289Z,4.00
2019-05-05T03:52:00.272Z,4.00
2019-05-05T03:53:00.258Z,4.00
2019-05-05T03:54:00.245Z,8.00
2019-05-05T03:55:00.234Z,4.00
2019-05-05T03:56:00.214Z,8.00
2019-05-05T03:57:00.198Z,8.00
2019-05-05T03:58:00.185Z,4.00
2019-05-05T03:59:00.170Z,8.00
2019-05-05T04:00:00.154Z,8.00
2019-05-05T04:01:00.139Z,12.00
2019-05-05T04:02:00.125Z,8.00
2019-05-05T04:03:00.114Z,12.00
2019-05-05T04:04:00.092Z,16.00
2019-05-05T04:05:00.075Z,12.00
2019-05-05T04:06:00.063Z,16.00
2019-05-05T04:07:00.047Z,20.00
2019-05-05T04:08:00.032Z,20.00
2019-05-05T04:09:00.017Z,20.00
2019-05-05T04:10:00.002Z,20.00
2019-05-05T04:10:59.988Z,24.00
2019-05-05T04:11:59.970Z,28.00
2019-05-05T04:12:59.956Z,32.00
2019-05-05T04:13:59.939Z,36.00
2019-05-05T04:14:59.924Z,36.00
2019-05-05T04:15:59.908Z,40.00
2019-05-05T04:16:59.892Z,40.00
2019-05-05T04:17:59.879Z,44.00
2019-05-05T04:18:59.861Z,48.00
2019-05-05T04:19:59.845Z,52.00
2019-05-05T04:20:59.829Z,52.00
2019-05-05T04:21:59.816Z,60.00
2019-05-05T04:22:59.797Z,56.00
2019-05-05T04:23:59.786Z,60.00
2019-05-05T04:24:59.766Z,60.00
2019-05-05T04:25:59.752Z,56.00
2019-05-05T04:26:59.734Z,56.00
2019-05-05T04:27:59.721Z,52.00
2019-05-05T04:29:02.262Z,56.00
2019-05-05T04:29:59.691Z,52.00
2019-05-05T04:30:59.676Z,52.00
2019-05-05T04:31:59.656Z,52.00
2019-05-05T04:32:59.642Z,60.00
2019-05-05T04:33:59.628Z,60.00
2019-05-05T04:34:59.611Z,60.00
2019-05-05T04:35:59.595Z,64.00
2019-05-05T04:36:59.580Z,68.00
2019-05-05T04:37:59.563Z,68.00
2019-05-05T04:38:59.548Z,72.00
2019-05-05T04:39:59.535Z,72.00
2019-05-05T04:40:59.517Z,68.00
2019-05-05T04:41:59.501Z,72.00
2019-05-05T04:42:59.489Z,76.00
2019-05-05T04:43:59.471Z,84.00
2019-05-05T04:44:59.454Z,88.00
2019-05-05T04:45:59.443Z,100.00
2019-05-05T04:46:59.427Z,108.00
2019-05-05T04:47:59.410Z,116.00
2019-05-05T04:48:59.397Z,132.00
2019-05-05T04:49:59.381Z,152.00
2019-05-05T04:50:59.367Z,156.00
2019-05-05T04:51:59.347Z,152.00
2019-05-05T04:52:59.335Z,152.00
2019-05-05T04:53:59.317Z,148.00
2019-05-05T04:54:59.307Z,152.00
2019-05-05T04:55:59.285Z,152.00
2019-05-05T04:56:59.271Z,160.00
2019-05-05T04:57:59.256Z,164.00
2019-05-05T04:58:59.241Z,172.00
2019-05-05T04:59:59.224Z,188.00
2019-05-05T05:00:59.215Z,208.00
2019-05-05T05:01:59.194Z,224.00
2019-05-05T05:02:59.180Z,232.00
2019-05-05T05:03:59.165Z,248.00
2019-05-05T05:04:59.148Z,264.00
2019-05-05T05:05:59.137Z,272.00
2019-05-05T05:06:59.119Z,284.00
2019-05-05T05:07:59.115Z,296.00
2019-05-05T05:08:59.088Z,304.00
2019-05-05T05:09:59.077Z,312.00
2019-05-05T05:10:59.061Z,324.00
2019-05-05T05:11:59.044Z,340.00
2019-05-05T05:12:59.029Z,352.00
2019-05-05T05:13:59.018Z,364.00
2019-05-05T05:14:59.000Z,368.00
2019-05-05T05:15:58.985Z,372.00
2019-05-05T05:16:58.967Z,364.00
2019-05-05T05:17:58.955Z,364.00
2019-05-05T05:18:58.939Z,356.00
2019-05-05T05:19:58.923Z,360.00
2019-05-05T05:20:58.909Z,368.00
2019-05-05T05:22:01.986Z,384.00
2019-05-05T05:22:58.881Z,416.00
2019-05-05T05:23:58.862Z,436.00
2019-05-05T05:24:58.849Z,436.00
2019-05-05T05:25:58.833Z,464.00
2019-05-05T05:26:58.822Z,488.00
2019-05-05T05:27:58.805Z,488.00
2019-05-05T05:28:58.786Z,464.00
2019-05-05T05:29:58.774Z,464.00
2019-05-05T05:30:58.759Z,468.00
2019-05-05T05:31:58.743Z,432.00
2019-05-05T05:32:58.730Z,424.00
2019-05-05T05:33:58.714Z,408.00
2019-05-05T05:34:58.701Z,400.00
2019-05-05T05:35:58.684Z,408.00
2019-05-05T05:36:58.670Z,412.00
2019-05-05T05:37:58.656Z,416.00
2019-05-05T05:38:58.640Z,456.00
2019-05-05T05:39:58.623Z,520.00
2019-05-05T05:40:58.616Z,596.00
2019-05-05T05:41:58.594Z,624.00
2019-05-05T05:42:58.581Z,612.00
2019-05-05T05:43:58.567Z,576.00
2019-05-05T05:44:58.551Z,568.00
2019-05-05T05:45:58.538Z,560.00
2019-05-05T05:46:58.521Z,552.00
2019-05-05T05:47:58.505Z,556.00
2019-05-05T05:48:58.490Z,536.00
2019-05-05T05:49:58.474Z,524.00
2019-05-05T05:50:58.459Z,524.00
2019-05-05T05:52:12.095Z,540.00
2019-05-05T05:52:58.437Z,532.00
2019-05-05T05:53:58.413Z,540.00
2019-05-05T05:54:58.400Z,568.00
2019-05-05T05:55:58.392Z,608.00
2019-05-05T05:56:58.373Z,648.00
2019-05-05T05:57:58.355Z,652.00
2019-05-05T05:58:58.341Z,624.00
2019-05-05T05:59:58.325Z,600.00
2019-05-05T06:00:58.311Z,592.00
2019-05-05T06:02:08.949Z,584.00
2019-05-05T06:02:58.282Z,572.00
2019-05-05T06:03:58.267Z,580.00
2019-05-05T06:04:58.253Z,616.00
2019-05-05T06:05:58.240Z,676.00
2019-05-05T06:06:58.234Z,764.00
2019-05-05T06:07:58.207Z,868.00
2019-05-05T06:08:58.196Z,856.00
2019-05-05T06:09:58.181Z,832.00
2019-05-05T06:10:58.163Z,816.00
2019-05-05T06:11:58.161Z,832.00
2019-05-05T06:12:58.136Z,872.00
2019-05-05T06:13:58.123Z,908.00
2019-05-05T06:14:58.112Z,944.00
2019-05-05T06:15:58.094Z,1008.00
2019-05-05T06:16:58.081Z,1028.00
2019-05-05T06:17:58.064Z,1068.00
2019-05-05T06:18:58.051Z,1104.00
2019-05-05T06:19:58.033Z,1096.00
2019-05-05T06:20:58.022Z,1136.00
2019-05-05T06:21:58.008Z,1192.00
2019-05-05T06:22:57.995Z,1148.00
2019-05-05T06:23:57.979Z,1080.00
2019-05-05T06:24:57.965Z,1084.00
2019-05-05T06:25:57.954Z,1072.00
2019-05-05T06:26:57.934Z,1068.00
2019-05-05T06:27:57.944Z,1060.00
2019-05-05T06:28:57.908Z,1068.00
2019-05-05T06:29:57.894Z,1112.00
2019-05-05T06:30:57.881Z,1156.00
2019-05-05T06:31:57.867Z,1204.00
2019-05-05T06:32:57.851Z,1164.00
2019-05-05T06:33:57.839Z,1088.00
2019-05-05T06:34:57.825Z,1092.00
2019-05-05T06:35:57.807Z,1156.00
2019-05-05T06:36:57.795Z,1204.00
2019-05-05T06:37:57.781Z,1236.00
2019-05-05T06:38:57.766Z,1304.00
2019-05-05T06:39:57.751Z,1324.00
2019-05-05T06:40:57.740Z,1340.00
2019-05-05T06:41:57.724Z,1416.00
2019-05-05T06:42:57.710Z,1436.00
2019-05-05T06:43:57.700Z,1420.00
2019-05-05T06:44:57.683Z,1424.00
2019-05-05T06:45:57.669Z,1484.00
2019-05-05T06:46:57.654Z,1548.00
2019-05-05T06:47:57.641Z,1568.00
2019-05-05T06:48:57.627Z,1584.00
2019-05-05T06:49:57.615Z,1596.00
2019-05-05T06:50:57.601Z,1616.00
2019-05-05T06:51:57.588Z,1640.00
2019-05-05T06:52:57.573Z,1648.00
2019-05-05T06:53:57.556Z,1640.00
2019-05-05T06:54:57.547Z,1680.00
2019-05-05T06:55:57.533Z,1740.00
2019-05-05T06:56:57.518Z,1752.00
2019-05-05T06:57:57.505Z,1732.00
2019-05-05T06:58:57.493Z,1764.00
2019-05-05T06:59:57.480Z,1792.00
2019-05-05T07:00:57.470Z,1756.00
2019-05-05T07:01:57.454Z,1684.00
2019-05-05T07:02:57.436Z,1636.00
2019-05-05T07:03:57.421Z,1612.00
2019-05-05T07:04:57.408Z,1584.00
2019-05-05T07:05:57.396Z,1584.00
2019-05-05T07:06:57.387Z,1576.00
2019-05-05T07:07:57.370Z,1568.00
2019-05-05T07:08:57.358Z,1540.00
2019-05-05T07:09:57.342Z,1476.00
2019-05-05T07:10:57.335Z,1404.00
2019-05-05T07:11:57.317Z,1320.00
2019-05-05T07:12:57.304Z,1244.00
2019-05-05T07:13:57.291Z,1212.00
2019-05-05T07:14:57.282Z,1248.00
2019-05-05T07:15:57.266Z,1304.00
2019-05-05T07:16:57.255Z,1448.00
2019-05-05T07:17:57.239Z,1544.00
2019-05-05T07:18:57.227Z,1492.00
2019-05-05T07:19:57.211Z,1340.00
2019-05-05T07:20:57.202Z,1200.00
2019-05-05T07:21:57.187Z,1120.00
2019-05-05T07:23:02.112Z,1064.00
2019-05-05T07:23:57.158Z,1084.00
2019-05-05T07:24:57.148Z,1160.00
2019-05-05T07:25:57.136Z,1212.00
2019-05-05T07:26:57.126Z,1264.00
2019-05-05T07:27:57.109Z,1304.00
2019-05-05T07:28:57.097Z,1356.00
2019-05-05T07:29:57.084Z,1388.00
2019-05-05T07:30:57.114Z,1492.00
2019-05-05T07:31:57.054Z,1512.00
2019-05-05T07:32:57.046Z,1628.00
2019-05-05T07:33:57.029Z,1692.00
2019-05-05T07:34:57.019Z,1740.00
2019-05-05T07:36:02.904Z,1664.00
2019-05-05T07:36:57.001Z,1664.00
2019-05-05T07:37:56.979Z,1564.00
2019-05-05T07:38:56.967Z,1412.00
2019-05-05T07:39:56.951Z,1400.00
2019-05-05T07:40:56.939Z,1368.00
2019-05-05T07:41:56.925Z,1340.00
2019-05-05T07:42:56.912Z,1256.00
2019-05-05T07:43:56.898Z,1300.00
2019-05-05T07:44:56.885Z,1344.00
2019-05-05T07:45:56.873Z,1356.00
2019-05-05T07:46:56.862Z,1340.00
2019-05-05T07:47:56.848Z,1252.00
2019-05-05T07:48:56.833Z,1192.00
2019-05-05T07:49:56.821Z,1080.00
2019-05-05T07:51:02.047Z,984.00
2019-05-05T07:51:56.837Z,952.00
2019-05-05T07:53:11.042Z,908.00
2019-05-05T07:53:56.773Z,892.00
2019-05-05T07:54:56.756Z,908.00
2019-05-05T07:55:56.741Z,996.00
2019-05-05T07:56:56.730Z,1048.00
2019-05-05T07:57:56.716Z,1100.00
2019-05-05T07:58:56.703Z,1096.00
2019-05-05T07:59:56.694Z,1112.00
2019-05-05T08:00:56.676Z,1200.00
2019-05-05T08:01:56.662Z,1300.00
2019-05-05T08:02:56.651Z,1268.00
2019-05-05T08:03:56.637Z,1264.00
2019-05-05T08:04:56.623Z,1156.00
2019-05-05T08:05:56.615Z,1060.00
2019-05-05T08:06:56.595Z,1116.00
2019-05-05T08:07:56.587Z,1156.00
2019-05-05T08:08:56.569Z,1164.00
2019-05-05T08:09:56.555Z,1124.00
2019-05-05T08:10:56.548Z,1084.00
2019-05-05T08:11:56.528Z,1156.00
2019-05-05T08:12:56.516Z,1252.00
2019-05-05T08:13:56.502Z,1360.00
2019-05-05T08:14:56.491Z,1420.00
2019-05-05T08:16:00.011Z,1408.00
2019-05-05T08:16:56.463Z,1272.00
2019-05-05T08:17:56.448Z,1164.00
2019-05-05T08:18:56.436Z,1160.00
2019-05-05T08:19:56.426Z,1116.00
2019-05-05T08:20:56.409Z,1104.00
2019-05-05T08:21:56.394Z,1160.00
2019-05-05T08:22:56.383Z,1228.00
2019-05-05T08:23:56.368Z,1308.00
2019-05-05T08:24:56.355Z,1360.00
2019-05-05T08:25:56.340Z,1432.00
2019-05-05T08:26:56.355Z,1476.00
2019-05-05T08:27:56.331Z,1572.00
2019-05-05T08:28:56.304Z,1532.00
2019-05-05T08:29:56.289Z,1488.00
2019-05-05T08:30:56.275Z,1472.00
2019-05-05T08:31:56.258Z,1360.00
2019-05-05T08:32:56.248Z,1464.00
2019-05-05T08:33:56.234Z,1588.00
2019-05-05T08:35:00.583Z,1624.00
2019-05-05T08:35:56.205Z,1620.00
2019-05-05T08:36:59.571Z,1640.00
2019-05-05T08:37:56.178Z,1516.00
2019-05-05T08:38:56.166Z,1440.00
2019-05-05T08:39:56.151Z,1444.00
2019-05-05T08:40:56.136Z,1464.00
2019-05-05T08:41:56.122Z,1208.00
2019-05-05T08:42:56.111Z,1208.00
2019-05-05T08:43:56.096Z,1248.00
2019-05-05T08:44:56.086Z,1300.00
2019-05-05T08:45:56.071Z,1408.00
2019-05-05T08:46:56.057Z,1472.00
2019-05-05T08:47:56.041Z,1592.00
2019-05-05T08:48:56.027Z,1640.00
2019-05-05T08:49:56.015Z,1720.00
2019-05-05T08:50:56.002Z,1764.00
2019-05-05T08:51:55.987Z,1668.00
2019-05-05T08:52:55.973Z,1580.00
2019-05-05T08:53:55.958Z,1556.00
2019-05-05T08:54:55.946Z,1568.00
2019-05-05T08:55:55.931Z,1592.00
2019-05-05T08:56:55.923Z,1644.00
2019-05-05T08:57:55.901Z,1740.00
2019-05-05T08:58:55.893Z,1824.00
2019-05-05T08:59:55.877Z,1908.00
2019-05-05T09:00:55.863Z,1972.00
2019-05-05T09:01:55.850Z,2024.00
2019-05-05T09:02:55.833Z,2092.00
2019-05-05T09:03:55.821Z,2180.00
2019-05-05T09:04:55.806Z,2280.00
2019-05-05T09:05:55.794Z,2388.00
2019-05-05T09:06:55.779Z,2368.00
2019-05-05T09:07:55.767Z,2300.00
2019-05-05T09:08:55.755Z,2216.00
2019-05-05T09:09:55.738Z,2240.00
2019-05-05T09:10:55.727Z,2320.00
2019-05-05T09:11:55.709Z,2416.00
2019-05-05T09:12:55.698Z,2504.00
2019-05-05T09:13:55.682Z,2532.00
2019-05-05T09:14:55.669Z,2616.00
2019-05-05T09:15:55.652Z,2672.00
2019-05-05T09:16:55.643Z,2748.00
2019-05-05T09:17:55.627Z,2808.00
2019-05-05T09:18:55.613Z,2888.00
2019-05-05T09:19:55.597Z,3012.00
2019-05-05T09:20:55.588Z,3064.00
2019-05-05T09:21:55.573Z,2940.00
2019-05-05T09:22:57.261Z,2916.00
2019-05-05T09:23:59.873Z,3000.00
2019-05-05T09:24:55.530Z,3120.00
2019-05-05T09:25:55.518Z,3180.00
2019-05-05T09:26:55.503Z,3296.00
2019-05-05T09:27:55.490Z,3452.00
2019-05-05T09:28:55.478Z,3612.00
2019-05-05T09:29:55.464Z,3796.00
2019-05-05T09:30:55.453Z,3588.00
2019-05-05T09:31:55.439Z,3524.00
2019-05-05T09:32:55.427Z,3524.00
2019-05-05T09:33:55.412Z,3464.00
2019-05-05T09:34:55.398Z,3412.00
2019-05-05T09:35:55.385Z,3216.00
2019-05-05T09:36:55.376Z,3320.00
2019-05-05T09:37:55.359Z,3060.00
2019-05-05T09:38:55.345Z,2796.00
2019-05-05T09:39:55.330Z,2784.00
2019-05-05T09:40:55.318Z,3148.00
2019-05-05T09:41:55.306Z,2872.00
2019-05-05T09:42:55.294Z,3016.00
2019-05-05T09:43:55.278Z,2920.00
2019-05-05T09:44:55.266Z,2556.00
2019-05-05T09:45:55.256Z,2496.00
2019-05-05T09:46:55.240Z,2568.00
2019-05-05T09:47:55.226Z,2480.00
2019-05-05T09:48:55.216Z,2332.00
2019-05-05T09:49:55.200Z,2452.00
2019-05-05T09:50:55.190Z,2612.00
2019-05-05T09:51:55.172Z,2684.00
2019-05-05T09:52:55.159Z,2616.00
2019-05-05T09:53:55.147Z,2580.00
2019-05-05T09:54:55.133Z,2636.00
2019-05-05T09:55:55.120Z,2616.00
2019-05-05T09:56:55.105Z,2640.00
2019-05-05T09:57:55.095Z,2688.00
2019-05-05T09:58:55.081Z,2672.00
2019-05-05T09:59:55.068Z,2668.00
2019-05-05T10:00:55.053Z,2676.00
2019-05-05T10:01:55.038Z,2672.00
2019-05-05T10:02:55.027Z,2696.00
2019-05-05T10:03:55.012Z,2772.00
2019-05-05T10:04:55.001Z,2868.00
2019-05-05T10:05:54.994Z,2924.00
2019-05-05T10:06:54.977Z,2984.00
2019-05-05T10:07:54.963Z,3028.00
2019-05-05T10:08:54.949Z,3052.00
2019-05-05T10:09:54.939Z,3104.00
2019-05-05T10:10:54.926Z,3128.00
2019-05-05T10:11:54.910Z,3368.00
2019-05-05T10:12:55.113Z,4000.00
2019-05-05T10:13:54.883Z,3088.00
2019-05-05T10:14:54.873Z,3704.00
2019-05-05T10:15:55.023Z,3328.00
2019-05-05T10:16:54.844Z,2908.00
2019-05-05T10:17:54.834Z,3788.00
2019-05-05T10:18:54.819Z,3716.00
2019-05-05T10:19:54.813Z,2800.00
2019-05-05T10:20:54.797Z,2744.00
2019-05-05T10:21:54.787Z,2776.00
2019-05-05T10:22:54.771Z,2708.00
2019-05-05T10:23:54.765Z,2656.00
2019-05-05T10:24:57.326Z,2568.00
2019-05-05T10:25:54.736Z,2472.00
2019-05-05T10:26:54.723Z,2224.00
2019-05-05T10:27:54.712Z,2028.00
2019-05-05T10:28:54.704Z,1836.00
2019-05-05T10:29:54.895Z,1616.00
2019-05-05T10:30:54.679Z,1552.00
2019-05-05T10:31:54.666Z,1536.00
2019-05-05T10:32:54.721Z,1492.00
2019-05-05T10:33:54.643Z,1488.00
2019-05-05T10:34:54.630Z,1512.00
2019-05-05T10:35:54.619Z,1556.00
2019-05-05T10:36:54.609Z,1516.00
2019-05-05T10:37:54.652Z,1572.00
2019-05-05T10:38:54.582Z,1592.00
2019-05-05T10:39:54.571Z,1548.00
2019-05-05T10:40:54.559Z,1524.00
2019-05-05T10:41:56.175Z,1556.00
2019-05-05T10:42:54.535Z,1604.00
2019-05-05T10:43:54.527Z,1636.00
2019-05-05T10:44:54.513Z,1660.00
2019-05-05T10:45:54.781Z,1664.00
2019-05-05T10:46:54.490Z,1740.00
2019-05-05T10:47:54.477Z,1812.00
2019-05-05T10:48:54.462Z,1840.00
2019-05-05T10:49:54.541Z,1884.00
2019-05-05T10:50:54.442Z,1916.00
2019-05-05T10:51:54.509Z,1900.00
2019-05-05T10:52:54.425Z,1912.00
2019-05-05T10:53:54.650Z,1992.00
2019-05-05T10:54:54.910Z,2116.00
2019-05-05T10:55:54.379Z,2280.00
2019-05-05T10:56:54.369Z,2528.00
2019-05-05T10:57:54.558Z,2684.00
2019-05-05T10:58:54.643Z,2756.00
2019-05-05T10:59:54.333Z,2880.00
2019-05-05T11:00:54.523Z,3032.00
2019-05-05T11:01:54.311Z,3108.00
2019-05-05T11:02:54.297Z,3164.00
2019-05-05T11:03:54.283Z,3252.00
2019-05-05T11:04:54.658Z,3680.00
2019-05-05T11:05:54.259Z,3660.00
2019-05-05T11:06:54.728Z,3476.00
2019-05-05T11:07:54.237Z,3192.00
2019-05-05T11:08:54.224Z,2956.00
2019-05-05T11:09:54.213Z,2796.00
2019-05-05T11:10:54.206Z,2892.00
2019-05-05T11:11:54.192Z,3448.00
2019-05-05T11:12:54.176Z,2772.00
2019-05-05T11:13:54.342Z,2708.00
2019-05-05T11:14:54.561Z,2764.00
2019-05-05T11:15:54.633Z,3360.00
2019-05-05T11:16:54.648Z,2448.00
2019-05-05T11:17:54.325Z,2088.00
2019-05-05T11:18:54.193Z,1904.00
2019-05-05T11:19:54.096Z,1820.00
2019-05-05T11:20:54.863Z,1776.00
2019-05-05T11:21:54.123Z,1796.00
2019-05-05T11:22:54.229Z,1860.00
2019-05-05T11:23:54.065Z,1920.00
2019-05-05T11:25:00.578Z,1972.00
2019-05-05T11:25:54.549Z,1988.00
2019-05-05T11:26:54.139Z,2032.00
2019-05-05T11:27:54.212Z,2112.00
2019-05-05T11:28:54.010Z,2188.00
2019-05-05T11:29:54.203Z,2280.00
2019-05-05T11:30:53.966Z,2284.00
2019-05-05T11:31:53.954Z,2268.00
2019-05-05T11:32:53.943Z,2264.00
2019-05-05T11:33:54.290Z,2292.00
2019-05-05T11:34:53.922Z,2292.00
2019-05-05T11:35:54.102Z,2336.00
2019-05-05T11:36:54.437Z,2440.00
2019-05-05T11:37:54.323Z,2564.00
2019-05-05T11:38:53.889Z,2676.00
2019-05-05T11:39:53.864Z,2820.00
2019-05-05T11:40:54.689Z,3140.00
2019-05-05T11:41:54.756Z,3592.00
2019-05-05T11:42:54.172Z,3648.00
2019-05-05T11:43:53.816Z,3900.00
2019-05-05T11:44:53.798Z,3300.00
2019-05-05T11:45:54.410Z,2960.00
2019-05-05T11:46:54.693Z,2796.00
2019-05-05T11:47:53.765Z,2724.00
2019-05-05T11:48:54.378Z,2520.00
2019-05-05T11:49:56.617Z,2376.00
2019-05-05T11:50:54.158Z,2328.00
2019-05-05T11:51:54.369Z,2376.00
2019-05-05T11:52:54.483Z,2444.00
2019-05-05T11:53:54.143Z,2540.00
2019-05-05T11:54:54.403Z,2560.00
2019-05-05T11:55:54.975Z,2492.00
2019-05-05T11:56:54.096Z,2388.00
2019-05-05T11:57:54.486Z,2296.00
2019-05-05T11:58:54.653Z,2200.00
2019-05-05T11:59:54.035Z,2276.00
2019-05-05T12:00:54.547Z,2124.00
2019-05-05T12:01:54.919Z,2036.00
2019-05-05T12:02:54.362Z,2044.00
2019-05-05T12:03:53.760Z,2056.00
2019-05-05T12:04:54.040Z,2112.00
2019-05-05T12:05:53.553Z,2176.00
2019-05-05T12:06:53.541Z,2312.00
2019-05-05T12:07:54.143Z,2352.00
2019-05-05T12:08:53.518Z,2404.00
2019-05-05T12:09:54.901Z,2448.00
2019-05-05T12:10:54.218Z,2476.00
2019-05-05T12:11:54.517Z,2504.00
2019-05-05T12:12:53.758Z,2492.00
2019-05-05T12:13:54.643Z,2488.00
2019-05-05T12:14:53.926Z,2504.00
2019-05-05T12:15:53.855Z,2532.00
2019-05-05T12:16:53.420Z,2532.00
2019-05-05T12:17:54.564Z,2472.00
2019-05-05T12:18:53.904Z,2440.00
2019-05-05T12:19:54.110Z,2468.00
2019-05-05T12:20:54.405Z,2516.00
2019-05-05T12:21:54.859Z,2552.00
2019-05-05T12:22:53.904Z,2624.00
2019-05-05T12:23:54.649Z,2704.00
2019-05-05T12:24:53.587Z,2744.00
2019-05-05T12:25:56.995Z,2784.00
2019-05-05T12:26:54.249Z,2800.00
2019-05-05T12:27:53.282Z,2896.00
2019-05-05T12:28:54.525Z,3048.00
2019-05-05T12:29:54.574Z,2824.00
2019-05-05T12:30:53.249Z,2876.00
2019-05-05T12:31:53.237Z,3028.00
2019-05-05T12:32:55.274Z,3116.00
2019-05-05T12:33:54.818Z,2860.00
2019-05-05T12:34:53.760Z,2896.00